sensor_id;sensor_type;location;lat;lon;timestamp;pressure;altitude;pressure_sealevel;temperature
15144;BMP180;7672;50.834;6.286;2024-02-23T00:01:54;97199.41;;;10.11
15144;BMP180;7672;50.834;6.286;2024-02-23T00:04:21;97196.09;;;10.09
15144;BMP180;7672;50.834;6.286;2024-02-23T00:06:48;97209.59;;;10.08
15144;BMP180;7672;50.834;6.286;2024-02-23T00:09:15;97215.56;;;10.05
15144;BMP180;7672;50.834;6.286;2024-02-23T00:11:42;97220.59;;;10.05
15144;BMP180;7672;50.834;6.286;2024-02-23T00:14:12;97222.38;;;10.03
15144;BMP180;7672;50.834;6.286;2024-02-23T00:16:40;97224.16;;;10.00
15144;BMP180;7672;50.834;6.286;2024-02-23T00:19:08;97218.41;;;9.95
15144;BMP180;7672;50.834;6.286;2024-02-23T00:21:38;97229.53;;;9.89
15144;BMP180;7672;50.834;6.286;2024-02-23T00:24:06;97224.56;;;9.86
15144;BMP180;7672;50.834;6.286;2024-02-23T00:26:33;97244.16;;;9.79
15144;BMP180;7672;50.834;6.286;2024-02-23T00:29:00;97245.94;;;9.75
15144;BMP180;7672;50.834;6.286;2024-02-23T00:31:27;97241.13;;;9.69
15144;BMP180;7672;50.834;6.286;2024-02-23T00:33:54;97247.09;;;9.65
15144;BMP180;7672;50.834;6.286;2024-02-23T00:36:21;97252.34;;;9.59
15144;BMP180;7672;50.834;6.286;2024-02-23T00:38:48;97253.31;;;9.55
15144;BMP180;7672;50.834;6.286;2024-02-23T00:41:15;97256.00;;;9.49
15144;BMP180;7672;50.834;6.286;2024-02-23T00:43:42;97261.06;;;9.49
15144;BMP180;7672;50.834;6.286;2024-02-23T00:46:09;97257.66;;;9.50
15144;BMP180;7672;50.834;6.286;2024-02-23T00:48:36;97261.78;;;9.53
15144;BMP180;7672;50.834;6.286;2024-02-23T00:51:03;97258.44;;;9.52
15144;BMP180;7672;50.834;6.286;2024-02-23T00:53:31;97263.41;;;9.55
15144;BMP180;7672;50.834;6.286;2024-02-23T00:55:58;97274.34;;;9.54
15144;BMP180;7672;50.834;6.286;2024-02-23T00:58:26;97267.59;;;9.55
15144;BMP180;7672;50.834;6.286;2024-02-23T01:00:52;97263.47;;;9.52
15144;BMP180;7672;50.834;6.286;2024-02-23T01:03:20;97279.50;;;9.50
15144;BMP180;7672;50.834;6.286;2024-02-23T01:05:47;97284.75;;;9.44
15144;BMP180;7672;50.834;6.286;2024-02-23T01:08:14;97283.16;;;9.40
15144;BMP180;7672;50.834;6.286;2024-02-23T01:10:41;97280.91;;;9.32
15144;BMP180;7672;50.834;6.286;2024-02-23T01:13:08;97292.06;;;9.24
15144;BMP180;7672;50.834;6.286;2024-02-23T01:15:35;97286.38;;;9.18
15144;BMP180;7672;50.834;6.286;2024-02-23T01:18:04;97284.81;;;9.12
15144;BMP180;7672;50.834;6.286;2024-02-23T01:20:33;97281.66;;;9.06
15144;BMP180;7672;50.834;6.286;2024-02-23T01:23:00;97290.16;;;9.02
15144;BMP180;7672;50.834;6.286;2024-02-23T01:25:27;97300.41;;;8.96
15144;BMP180;7672;50.834;6.286;2024-02-23T01:27:54;97292.19;;;8.89
15144;BMP180;7672;50.834;6.286;2024-02-23T01:30:21;97297.31;;;8.86
15144;BMP180;7672;50.834;6.286;2024-02-23T01:32:48;97302.50;;;8.82
15144;BMP180;7672;50.834;6.286;2024-02-23T01:35:17;97306.78;;;8.78
15144;BMP180;7672;50.834;6.286;2024-02-23T01:37:44;97295.84;;;8.78
15144;BMP180;7672;50.834;6.286;2024-02-23T01:40:11;97300.09;;;8.77
15144;BMP180;7672;50.834;6.286;2024-02-23T01:42:39;97300.09;;;8.77
15144;BMP180;7672;50.834;6.286;2024-02-23T01:45:07;97311.00;;;8.76
15144;BMP180;7672;50.834;6.286;2024-02-23T01:47:34;97304.31;;;8.77
15144;BMP180;7672;50.834;6.286;2024-02-23T01:50:02;97311.88;;;8.75
15144;BMP180;7672;50.834;6.286;2024-02-23T01:52:30;97298.50;;;8.73
15144;BMP180;7672;50.834;6.286;2024-02-23T01:54:57;97315.28;;;8.73
15144;BMP180;7672;50.834;6.286;2024-02-23T01:57:24;97307.81;;;8.70
15144;BMP180;7672;50.834;6.286;2024-02-23T02:00:17;97311.34;;;8.64
15144;BMP180;7672;50.834;6.286;2024-02-23T02:02:51;97311.41;;;8.61
15144;BMP180;7672;50.834;6.286;2024-02-23T02:05:18;97295.53;;;8.60
15144;BMP180;7672;50.834;6.286;2024-02-23T02:07:49;97317.38;;;8.58
15144;BMP180;7672;50.834;6.286;2024-02-23T02:14:03;97315.09;;;8.49
15144;BMP180;7672;50.834;6.286;2024-02-23T02:16:30;97314.28;;;8.48
15144;BMP180;7672;50.834;6.286;2024-02-23T02:18:59;97308.41;;;8.48
15144;BMP180;7672;50.834;6.286;2024-02-23T02:21:27;97319.28;;;8.50
15144;BMP180;7672;50.834;6.286;2024-02-23T02:23:55;97311.69;;;8.51
15144;BMP180;7672;50.834;6.286;2024-02-23T02:26:23;97305.00;;;8.50
15144;BMP180;7672;50.834;6.286;2024-02-23T02:28:50;97326.78;;;8.51
15144;BMP180;7672;50.834;6.286;2024-02-23T02:31:17;97315.06;;;8.50
15144;BMP180;7672;50.834;6.286;2024-02-23T02:33:44;97320.09;;;8.50
15144;BMP180;7672;50.834;6.286;2024-02-23T02:36:11;97310.03;;;8.50
15144;BMP180;7672;50.834;6.286;2024-02-23T02:38:38;97317.56;;;8.50
15144;BMP180;7672;50.834;6.286;2024-02-23T02:41:05;97315.91;;;8.51
15144;BMP180;7672;50.834;6.286;2024-02-23T02:43:33;97325.97;;;8.51
15144;BMP180;7672;50.834;6.286;2024-02-23T02:46:00;97328.50;;;8.51
15144;BMP180;7672;50.834;6.286;2024-02-23T02:48:27;97327.69;;;8.49
15144;BMP180;7672;50.834;6.286;2024-02-23T02:50:54;97314.28;;;8.48
15144;BMP180;7672;50.834;6.286;2024-02-23T02:53:22;97326.03;;;8.48
15144;BMP180;7672;50.834;6.286;2024-02-23T02:55:49;97348.66;;;8.49
15144;BMP180;7672;50.834;6.286;2024-02-23T02:58:28;97336.94;;;8.48
15144;BMP180;7672;50.834;6.286;2024-02-23T03:00:58;97333.66;;;8.45
15144;BMP180;7672;50.834;6.286;2024-02-23T03:03:25;97334.47;;;8.45
15144;BMP180;7672;50.834;6.286;2024-02-23T03:05:52;97335.31;;;8.46
15144;BMP180;7672;50.834;6.286;2024-02-23T03:08:19;97352.03;;;8.48
15144;BMP180;7672;50.834;6.286;2024-02-23T03:10:46;97337.75;;;8.49
15144;BMP180;7672;50.834;6.286;2024-02-23T03:13:13;97338.50;;;8.52
15144;BMP180;7672;50.834;6.286;2024-02-23T03:15:40;97338.41;;;8.55
15144;BMP180;7672;50.834;6.286;2024-02-23T03:18:07;97343.41;;;8.58
15144;BMP180;7672;50.834;6.286;2024-02-23T03:20:36;97332.38;;;8.62
15144;BMP180;7672;50.834;6.286;2024-02-23T03:23:03;97335.66;;;8.64
15144;BMP180;7672;50.834;6.286;2024-02-23T03:25:30;97341.47;;;8.67
15144;BMP180;7672;50.834;6.286;2024-02-23T03:27:57;97327.94;;;8.71
15144;BMP180;7672;50.834;6.286;2024-02-23T03:30:24;97331.25;;;8.73
15144;BMP180;7672;50.834;6.286;2024-02-23T03:32:51;97339.56;;;8.77
15144;BMP180;7672;50.834;6.286;2024-02-23T03:35:18;97345.28;;;8.82
15144;BMP180;7672;50.834;6.286;2024-02-23T03:37:45;97345.91;;;8.90
15144;BMP180;7672;50.834;6.286;2024-02-23T03:40:12;97352.47;;;8.95
15144;BMP180;7672;50.834;6.286;2024-02-23T03:42:40;97342.31;;;8.98
15144;BMP180;7672;50.834;6.286;2024-02-23T03:45:07;97337.16;;;9.03
15144;BMP180;7672;50.834;6.286;2024-02-23T03:47:34;97343.72;;;9.08
15144;BMP180;7672;50.834;6.286;2024-02-23T03:50:02;97341.94;;;9.12
15144;BMP180;7672;50.834;6.286;2024-02-23T03:52:29;97346.03;;;9.16
15144;BMP180;7672;50.834;6.286;2024-02-23T03:54:56;97347.59;;;9.20
15144;BMP180;7672;50.834;6.286;2024-02-23T03:57:23;97342.50;;;9.23
15144;BMP180;7672;50.834;6.286;2024-02-23T03:59:54;97351.69;;;9.23
15144;BMP180;7672;50.834;6.286;2024-02-23T04:02:22;97357.50;;;9.25
15144;BMP180;7672;50.834;6.286;2024-02-23T04:04:49;97365.06;;;9.25
15144;BMP180;7672;50.834;6.286;2024-02-23T04:07:16;97359.13;;;9.28
15144;BMP180;7672;50.834;6.286;2024-02-23T04:09:43;97365.81;;;9.29
15144;BMP180;7672;50.834;6.286;2024-02-23T04:12:11;97358.34;;;9.26
15144;BMP180;7672;50.834;6.286;2024-02-23T04:14:39;97373.50;;;9.24
15144;BMP180;7672;50.834;6.286;2024-02-23T04:17:07;97369.38;;;9.22
15144;BMP180;7672;50.834;6.286;2024-02-23T04:19:34;97367.75;;;9.21
15144;BMP180;7672;50.834;6.286;2024-02-23T04:22:01;97370.25;;;9.21
15144;BMP180;7672;50.834;6.286;2024-02-23T04:24:28;97368.56;;;9.22
15144;BMP180;7672;50.834;6.286;2024-02-23T04:26:55;97355.09;;;9.23
15144;BMP180;7672;50.834;6.286;2024-02-23T04:29:22;97360.94;;;9.23
15144;BMP180;7672;50.834;6.286;2024-02-23T04:31:50;97366.00;;;9.23
15144;BMP180;7672;50.834;6.286;2024-02-23T04:34:17;97366.84;;;9.22
15144;BMP180;7672;50.834;6.286;2024-02-23T04:36:44;97365.16;;;9.23
15144;BMP180;7672;50.834;6.286;2024-02-23T04:39:11;97361.00;;;9.22
15144;BMP180;7672;50.834;6.286;2024-02-23T04:41:38;97363.50;;;9.22
15144;BMP180;7672;50.834;6.286;2024-02-23T04:44:05;97356.00;;;9.20
15144;BMP180;7672;50.834;6.286;2024-02-23T04:46:32;97367.81;;;9.18
15144;BMP180;7672;50.834;6.286;2024-02-23T04:49:02;97372.94;;;9.15
15144;BMP180;7672;50.834;6.286;2024-02-23T04:51:29;97362.00;;;9.15
15144;BMP180;7672;50.834;6.286;2024-02-23T04:53:56;97361.16;;;9.16
15144;BMP180;7672;50.834;6.286;2024-02-23T04:56:23;97356.97;;;9.16
15144;BMP180;7672;50.834;6.286;2024-02-23T04:58:53;97367.00;;;9.18
15144;BMP180;7672;50.834;6.286;2024-02-23T05:01:20;97364.50;;;9.16
15144;BMP180;7672;50.834;6.286;2024-02-23T05:03:47;97363.63;;;9.17
15144;BMP180;7672;50.834;6.286;2024-02-23T05:06:14;97361.94;;;9.18
15144;BMP180;7672;50.834;6.286;2024-02-23T05:08:41;97356.09;;;9.16
15144;BMP180;7672;50.834;6.286;2024-02-23T05:11:08;97352.81;;;9.14
15144;BMP180;7672;50.834;6.286;2024-02-23T05:13:35;97345.28;;;9.12
15144;BMP180;7672;50.834;6.286;2024-02-23T05:16:03;97349.50;;;9.12
15144;BMP180;7672;50.834;6.286;2024-02-23T05:18:30;97338.56;;;9.13
15144;BMP180;7672;50.834;6.286;2024-02-23T05:20:57;97332.63;;;9.15
15144;BMP180;7672;50.834;6.286;2024-02-23T05:23:24;97336.75;;;9.18
15144;BMP180;7672;50.834;6.286;2024-02-23T05:25:51;97329.94;;;9.21
15144;BMP180;7672;50.834;6.286;2024-02-23T05:28:18;97336.56;;;9.23
15144;BMP180;7672;50.834;6.286;2024-02-23T05:30:45;97331.53;;;9.23
15144;BMP180;7672;50.834;6.286;2024-02-23T05:33:12;97317.38;;;9.20
15144;BMP180;7672;50.834;6.286;2024-02-23T05:35:39;97315.72;;;9.19
15144;BMP180;7672;50.834;6.286;2024-02-23T05:38:06;97311.63;;;9.15
15144;BMP180;7672;50.834;6.286;2024-02-23T05:40:33;97315.09;;;9.11
15144;BMP180;7672;50.834;6.286;2024-02-23T05:43:00;97297.56;;;9.08
15144;BMP180;7672;50.834;6.286;2024-02-23T05:45:27;97296.75;;;9.06
15144;BMP180;7672;50.834;6.286;2024-02-23T05:47:55;97306.94;;;9.03
15144;BMP180;7672;50.834;6.286;2024-02-23T05:50:22;97295.19;;;9.02
15144;BMP180;7672;50.834;6.286;2024-02-23T05:52:49;97285.22;;;8.99
15144;BMP180;7672;50.834;6.286;2024-02-23T05:55:18;97303.75;;;8.96
15144;BMP180;7672;50.834;6.286;2024-02-23T05:57:45;97296.31;;;8.92
15144;BMP180;7672;50.834;6.286;2024-02-23T06:00:12;97291.38;;;8.89
15144;BMP180;7672;50.834;6.286;2024-02-23T06:02:42;97285.59;;;8.85
15144;BMP180;7672;50.834;6.286;2024-02-23T06:05:09;97289.91;;;8.82
15144;BMP180;7672;50.834;6.286;2024-02-23T06:07:36;97297.47;;;8.80
15144;BMP180;7672;50.834;6.286;2024-02-23T06:10:05;97304.25;;;8.78
15144;BMP180;7672;50.834;6.286;2024-02-23T06:12:32;97308.50;;;8.76
15144;BMP180;7672;50.834;6.286;2024-02-23T06:14:59;97307.75;;;8.73
15144;BMP180;7672;50.834;6.286;2024-02-23T06:17:26;97311.16;;;8.70
15144;BMP180;7672;50.834;6.286;2024-02-23T06:19:53;97312.09;;;8.68
15144;BMP180;7672;50.834;6.286;2024-02-23T06:22:20;97311.28;;;8.66
15144;BMP180;7672;50.834;6.286;2024-02-23T06:24:51;97303.75;;;8.66
15144;BMP180;7672;50.834;6.286;2024-02-23T06:27:18;97303.78;;;8.64
15144;BMP180;7672;50.834;6.286;2024-02-23T06:29:45;97303.84;;;8.61
15144;BMP180;7672;50.834;6.286;2024-02-23T06:32:12;97297.13;;;8.62
15144;BMP180;7672;50.834;6.286;2024-02-23T06:34:39;97287.06;;;8.62
15144;BMP180;7672;50.834;6.286;2024-02-23T06:37:06;97300.53;;;8.61
15144;BMP180;7672;50.834;6.286;2024-02-23T06:39:33;97294.66;;;8.61
15144;BMP180;7672;50.834;6.286;2024-02-23T06:42:00;97297.19;;;8.61
15144;BMP180;7672;50.834;6.286;2024-02-23T06:44:30;97295.44;;;8.62
15144;BMP180;7672;50.834;6.286;2024-02-23T06:46:58;97303.75;;;8.66
15144;BMP180;7672;50.834;6.286;2024-02-23T06:49:25;97304.38;;;8.74
15144;BMP180;7672;50.834;6.286;2024-02-23T06:51:52;97319.31;;;8.80
15144;BMP180;7672;50.834;6.286;2024-02-23T06:54:19;97315.91;;;8.82
15144;BMP180;7672;50.834;6.286;2024-02-23T06:56:46;97324.19;;;8.86
15144;BMP180;7672;50.834;6.286;2024-02-23T06:59:13;97325.69;;;8.93
15144;BMP180;7672;50.834;6.286;2024-02-23T07:01:50;97332.13;;;9.03
15144;BMP180;7672;50.834;6.286;2024-02-23T07:04:18;97332.22;;;9.28
15144;BMP180;7672;50.834;6.286;2024-02-23T07:06:45;97338.56;;;9.70
15144;BMP180;7672;50.834;6.286;2024-02-23T07:09:15;97340.50;;;10.17
15144;BMP180;7672;50.834;6.286;2024-02-23T07:11:42;97337.28;;;10.63
15144;BMP180;7672;50.834;6.286;2024-02-23T07:14:10;97333.81;;;11.14
15144;BMP180;7672;50.834;6.286;2024-02-23T07:16:40;97326.63;;;11.73
15144;BMP180;7672;50.834;6.286;2024-02-23T07:19:07;97331.97;;;12.29
15144;BMP180;7672;50.834;6.286;2024-02-23T07:21:35;97331.34;;;12.84
15144;BMP180;7672;50.834;6.286;2024-02-23T07:24:03;97326.50;;;13.37
15144;BMP180;7672;50.834;6.286;2024-02-23T07:26:30;97327.31;;;13.93
15144;BMP180;7672;50.834;6.286;2024-02-23T07:28:57;97320.63;;;14.44
15144;BMP180;7672;50.834;6.286;2024-02-23T07:31:24;97326.75;;;14.90
15144;BMP180;7672;50.834;6.286;2024-02-23T07:33:52;97334.13;;;15.29
15144;BMP180;7672;50.834;6.286;2024-02-23T07:36:19;97347.06;;;15.56
15144;BMP180;7672;50.834;6.286;2024-02-23T07:38:47;97346.75;;;15.93
15144;BMP180;7672;50.834;6.286;2024-02-23T07:41:15;97336.69;;;16.52
15144;BMP180;7672;50.834;6.286;2024-02-23T07:43:42;97334.50;;;16.89
15144;BMP180;7672;50.834;6.286;2024-02-23T07:46:09;97342.63;;;16.95
15144;BMP180;7672;50.834;6.286;2024-02-23T07:48:36;97344.19;;;16.98
15144;BMP180;7672;50.834;6.286;2024-02-23T07:51:05;97328.13;;;17.25
15144;BMP180;7672;50.834;6.286;2024-02-23T07:53:32;97335.22;;;17.34
15144;BMP180;7672;50.834;6.286;2024-02-23T07:55:59;97331.53;;;17.24
15144;BMP180;7672;50.834;6.286;2024-02-23T07:58:29;97331.28;;;17.15
15144;BMP180;7672;50.834;6.286;2024-02-23T08:00:56;97323.34;;;17.19
15144;BMP180;7672;50.834;6.286;2024-02-23T08:03:23;97331.69;;;17.36
15144;BMP180;7672;50.834;6.286;2024-02-23T08:05:50;97326.91;;;17.72
15144;BMP180;7672;50.834;6.286;2024-02-23T08:08:17;97323.53;;;18.26
15144;BMP180;7672;50.834;6.286;2024-02-23T08:10:45;97330.72;;;18.84
15144;BMP180;7672;50.834;6.286;2024-02-23T08:13:12;97322.78;;;19.38
15144;BMP180;7672;50.834;6.286;2024-02-23T08:15:39;97323.94;;;19.83
15144;BMP180;7672;50.834;6.286;2024-02-23T08:18:06;97326.00;;;20.37
15144;BMP180;7672;50.834;6.286;2024-02-23T08:20:33;97332.63;;;20.86
15144;BMP180;7672;50.834;6.286;2024-02-23T08:23:00;97328.19;;;21.33
15144;BMP180;7672;50.834;6.286;2024-02-23T08:25:28;97335.91;;;21.87
15144;BMP180;7672;50.834;6.286;2024-02-23T08:27:56;97330.06;;;22.38
15144;BMP180;7672;50.834;6.286;2024-02-23T08:30:23;97340.50;;;22.37
15144;BMP180;7672;50.834;6.286;2024-02-23T08:32:51;97351.41;;;22.08
15144;BMP180;7672;50.834;6.286;2024-02-23T08:35:18;97339.63;;;22.05
15144;BMP180;7672;50.834;6.286;2024-02-23T08:37:45;97333.72;;;22.25
15144;BMP180;7672;50.834;6.286;2024-02-23T08:40:12;97338.44;;;22.51
15144;BMP180;7672;50.834;6.286;2024-02-23T08:42:40;97334.34;;;22.80
15144;BMP180;7672;50.834;6.286;2024-02-23T08:45:07;97332.53;;;22.71
15144;BMP180;7672;50.834;6.286;2024-02-23T08:47:36;97335.56;;;22.45
15144;BMP180;7672;50.834;6.286;2024-02-23T08:50:05;97321.97;;;22.01
15144;BMP180;7672;50.834;6.286;2024-02-23T08:52:32;97333.81;;;21.81
15144;BMP180;7672;50.834;6.286;2024-02-23T08:54:59;97333.50;;;22.17
15144;BMP180;7672;50.834;6.286;2024-02-23T08:57:27;97335.34;;;22.68
15144;BMP180;7672;50.834;6.286;2024-02-23T08:59:55;97319.94;;;23.09
15144;BMP180;7672;50.834;6.286;2024-02-23T09:02:24;97322.94;;;23.34
15144;BMP180;7672;50.834;6.286;2024-02-23T09:04:52;97316.72;;;23.46
15144;BMP180;7672;50.834;6.286;2024-02-23T09:07:19;97323.72;;;23.35
15144;BMP180;7672;50.834;6.286;2024-02-23T09:09:48;97311.84;;;23.43
15144;BMP180;7672;50.834;6.286;2024-02-23T09:12:18;97329.09;;;23.52
15144;BMP180;7672;50.834;6.286;2024-02-23T09:14:45;97320.41;;;23.73
15144;BMP180;7672;50.834;6.286;2024-02-23T09:17:12;97325.31;;;23.56
15144;BMP180;7672;50.834;6.286;2024-02-23T09:19:40;97342.81;;;23.02
15144;BMP180;7672;50.834;6.286;2024-02-23T09:22:07;97328.72;;;22.55
15144;BMP180;7672;50.834;6.286;2024-02-23T09:24:34;97325.66;;;22.30
15144;BMP180;7672;50.834;6.286;2024-02-23T09:27:01;97334.56;;;22.15
15144;BMP180;7672;50.834;6.286;2024-02-23T09:29:29;97319.84;;;22.17
15144;BMP180;7672;50.834;6.286;2024-02-23T09:31:57;97336.22;;;22.58
15144;BMP180;7672;50.834;6.286;2024-02-23T09:34:24;97334.88;;;22.95
15144;BMP180;7672;50.834;6.286;2024-02-23T09:36:52;97332.09;;;23.27
15144;BMP180;7672;50.834;6.286;2024-02-23T09:39:19;97349.13;;;23.39
15144;BMP180;7672;50.834;6.286;2024-02-23T09:41:50;97347.41;;;23.49
15144;BMP180;7672;50.834;6.286;2024-02-23T09:44:18;97350.41;;;23.74
15144;BMP180;7672;50.834;6.286;2024-02-23T09:46:48;97344.41;;;24.04
15144;BMP180;7672;50.834;6.286;2024-02-23T09:49:16;97350.41;;;24.14
15144;BMP180;7672;50.834;6.286;2024-02-23T09:51:43;97360.75;;;23.84
15144;BMP180;7672;50.834;6.286;2024-02-23T09:54:10;97362.66;;;23.32
15144;BMP180;7672;50.834;6.286;2024-02-23T09:56:39;97354.88;;;22.71
15144;BMP180;7672;50.834;6.286;2024-02-23T09:59:06;97356.09;;;22.14
15144;BMP180;7672;50.834;6.286;2024-02-23T10:01:33;97362.03;;;21.49
15144;BMP180;7672;50.834;6.286;2024-02-23T10:04:02;97360.50;;;20.79
15144;BMP180;7672;50.834;6.286;2024-02-23T10:06:33;97361.88;;;20.26
15144;BMP180;7672;50.834;6.286;2024-02-23T10:09:00;97370.66;;;19.86
15144;BMP180;7672;50.834;6.286;2024-02-23T10:11:28;97363.84;;;19.49
15144;BMP180;7672;50.834;6.286;2024-02-23T10:13:55;97358.41;;;19.41
15144;BMP180;7672;50.834;6.286;2024-02-23T10:16:22;97360.69;;;19.46
15144;BMP180;7672;50.834;6.286;2024-02-23T10:18:50;97369.69;;;19.39
15144;BMP180;7672;50.834;6.286;2024-02-23T10:21:17;97379.31;;;19.11
15144;BMP180;7672;50.834;6.286;2024-02-23T10:23:45;97378.59;;;18.70
15144;BMP180;7672;50.834;6.286;2024-02-23T10:26:13;97375.34;;;18.28
15144;BMP180;7672;50.834;6.286;2024-02-23T10:28:40;97372.50;;;17.92
15144;BMP180;7672;50.834;6.286;2024-02-23T10:31:07;97380.75;;;17.55
15144;BMP180;7672;50.834;6.286;2024-02-23T10:33:40;97391.44;;;17.19
15144;BMP180;7672;50.834;6.286;2024-02-23T10:36:07;97383.25;;;16.84
15144;BMP180;7672;50.834;6.286;2024-02-23T10:38:38;97400.25;;;16.55
15144;BMP180;7672;50.834;6.286;2024-02-23T10:41:08;97387.88;;;16.33
15144;BMP180;7672;50.834;6.286;2024-02-23T10:43:44;97395.31;;;16.21
15144;BMP180;7672;50.834;6.286;2024-02-23T10:46:15;97392.78;;;16.06
15144;BMP180;7672;50.834;6.286;2024-02-23T10:48:44;97389.25;;;16.54
15144;BMP180;7672;50.834;6.286;2024-02-23T10:51:14;97384.63;;;17.33
15144;BMP180;7672;50.834;6.286;2024-02-23T10:53:48;97385.16;;;18.48
15144;BMP180;7672;50.834;6.286;2024-02-23T10:56:15;97384.44;;;19.35
15144;BMP180;7672;50.834;6.286;2024-02-23T10:58:43;97375.50;;;19.53
15144;BMP180;7672;50.834;6.286;2024-02-23T11:01:11;97385.69;;;19.55
15144;BMP180;7672;50.834;6.286;2024-02-23T11:03:43;97380.34;;;19.45
15144;BMP180;7672;50.834;6.286;2024-02-23T11:06:15;97364.97;;;19.45
15144;BMP180;7672;50.834;6.286;2024-02-23T11:08:43;97378.28;;;19.25
15144;BMP180;7672;50.834;6.286;2024-02-23T11:11:11;97367.75;;;18.91
15144;BMP180;7672;50.834;6.286;2024-02-23T11:13:44;97378.81;;;18.53
15144;BMP180;7672;50.834;6.286;2024-02-23T11:16:22;97379.41;;;18.18
15144;BMP180;7672;50.834;6.286;2024-02-23T11:19:04;97381.50;;;17.97
15144;BMP180;7672;50.834;6.286;2024-02-23T11:21:36;97394.81;;;18.02
15144;BMP180;7672;50.834;6.286;2024-02-23T11:24:05;97394.59;;;17.93
15144;BMP180;7672;50.834;6.286;2024-02-23T11:26:32;97396.69;;;17.73
15144;BMP180;7672;50.834;6.286;2024-02-23T11:29:11;97395.97;;;17.57
15144;BMP180;7672;50.834;6.286;2024-02-23T11:31:45;97387.09;;;17.34
15144;BMP180;7672;50.834;6.286;2024-02-23T11:34:13;97393.53;;;17.12
15144;BMP180;7672;50.834;6.286;2024-02-23T11:36:40;97394.25;;;16.85
15144;BMP180;7672;50.834;6.286;2024-02-23T11:39:10;97382.88;;;16.61
15144;BMP180;7672;50.834;6.286;2024-02-23T11:41:40;97396.09;;;16.38
15144;BMP180;7672;50.834;6.286;2024-02-23T11:44:08;97390.97;;;16.23
15144;BMP180;7672;50.834;6.286;2024-02-23T11:46:35;97399.19;;;16.12
15144;BMP180;7672;50.834;6.286;2024-02-23T11:49:03;97393.34;;;16.10
15144;BMP180;7672;50.834;6.286;2024-02-23T11:51:30;97401.88;;;16.09
15144;BMP180;7672;50.834;6.286;2024-02-23T11:53:57;97394.91;;;16.13
15144;BMP180;7672;50.834;6.286;2024-02-23T11:56:26;97385.88;;;16.23
15144;BMP180;7672;50.834;6.286;2024-02-23T11:58:56;97385.78;;;16.24
15144;BMP180;7672;50.834;6.286;2024-02-23T12:01:23;97398.47;;;16.26
15144;BMP180;7672;50.834;6.286;2024-02-23T12:03:50;97380.78;;;16.23
15144;BMP180;7672;50.834;6.286;2024-02-23T12:06:17;97379.38;;;16.17
15144;BMP180;7672;50.834;6.286;2024-02-23T12:08:45;97378.22;;;16.23
15144;BMP180;7672;50.834;6.286;2024-02-23T12:11:14;97379.22;;;16.20
15144;BMP180;7672;50.834;6.286;2024-02-23T12:13:41;97380.97;;;16.35
15144;BMP180;7672;50.834;6.286;2024-02-23T12:16:08;97369.81;;;16.67
15144;BMP180;7672;50.834;6.286;2024-02-23T12:18:36;97369.97;;;16.93
15144;BMP180;7672;50.834;6.286;2024-02-23T12:21:08;97375.47;;;17.15
15144;BMP180;7672;50.834;6.286;2024-02-23T12:23:41;97372.22;;;17.27
15144;BMP180;7672;50.834;6.286;2024-02-23T12:26:10;97366.78;;;17.33
15144;BMP180;7672;50.834;6.286;2024-02-23T12:28:40;97376.81;;;17.36
15144;BMP180;7672;50.834;6.286;2024-02-23T12:31:08;97374.34;;;17.34
15144;BMP180;7672;50.834;6.286;2024-02-23T12:33:39;97375.97;;;17.35
15144;BMP180;7672;50.834;6.286;2024-02-23T12:36:08;97378.28;;;17.40
15144;BMP180;7672;50.834;6.286;2024-02-23T12:38:36;97375.44;;;17.44
15144;BMP180;7672;50.834;6.286;2024-02-23T12:41:04;97376.28;;;17.45
15144;BMP180;7672;50.834;6.286;2024-02-23T12:43:32;97366.88;;;17.45
15144;BMP180;7672;50.834;6.286;2024-02-23T12:45:59;97375.72;;;17.40
15144;BMP180;7672;50.834;6.286;2024-02-23T12:48:28;97373.34;;;17.37
15144;BMP180;7672;50.834;6.286;2024-02-23T12:50:55;97367.66;;;17.32
15144;BMP180;7672;50.834;6.286;2024-02-23T12:53:40;97379.88;;;17.27
15144;BMP180;7672;50.834;6.286;2024-02-23T12:56:12;97368.19;;;17.23
15144;BMP180;7672;50.834;6.286;2024-02-23T12:58:44;97377.94;;;17.17
15144;BMP180;7672;50.834;6.286;2024-02-23T13:01:12;97379.84;;;17.13
15144;BMP180;7672;50.834;6.286;2024-02-23T13:03:39;97371.56;;;17.10
15144;BMP180;7672;50.834;6.286;2024-02-23T13:06:10;97381.28;;;17.03
15144;BMP180;7672;50.834;6.286;2024-02-23T13:08:37;97381.53;;;16.99
15144;BMP180;7672;50.834;6.286;2024-02-23T13:11:06;97384.19;;;16.97
15144;BMP180;7672;50.834;6.286;2024-02-23T13:13:33;97380.84;;;16.97
15144;BMP180;7672;50.834;6.286;2024-02-23T13:16:01;97382.34;;;16.99
15144;BMP180;7672;50.834;6.286;2024-02-23T13:18:28;97378.56;;;17.06
15144;BMP180;7672;50.834;6.286;2024-02-23T13:20:55;97381.47;;;17.14
15144;BMP180;7672;50.834;6.286;2024-02-23T13:23:22;97375.47;;;17.15
15144;BMP180;7672;50.834;6.286;2024-02-23T13:25:49;97375.81;;;17.09
15144;BMP180;7672;50.834;6.286;2024-02-23T13:28:16;97374.53;;;17.02
15144;BMP180;7672;50.834;6.286;2024-02-23T13:30:43;97377.63;;;16.93
15144;BMP180;7672;50.834;6.286;2024-02-23T13:33:11;97382.50;;;16.82
15144;BMP180;7672;50.834;6.286;2024-02-23T13:35:38;97377.25;;;16.70
15144;BMP180;7672;50.834;6.286;2024-02-23T13:38:06;97385.78;;;16.55
15144;BMP180;7672;50.834;6.286;2024-02-23T13:40:34;97375.53;;;16.41
15144;BMP180;7672;50.834;6.286;2024-02-23T13:43:01;97384.75;;;16.28
15144;BMP180;7672;50.834;6.286;2024-02-23T13:45:28;97386.19;;;16.17
15144;BMP180;7672;50.834;6.286;2024-02-23T13:48:00;97383.41;;;16.06
15144;BMP180;7672;50.834;6.286;2024-02-23T13:50:28;97367.88;;;15.95
15144;BMP180;7672;50.834;6.286;2024-02-23T13:52:56;97386.28;;;15.85
15144;BMP180;7672;50.834;6.286;2024-02-23T13:55:24;97380.91;;;15.74
15144;BMP180;7672;50.834;6.286;2024-02-23T13:57:51;97376.09;;;15.69
15144;BMP180;7672;50.834;6.286;2024-02-23T14:00:19;97379.84;;;15.62
15144;BMP180;7672;50.834;6.286;2024-02-23T14:02:47;97383.66;;;15.54
15144;BMP180;7672;50.834;6.286;2024-02-23T14:05:15;97374.13;;;15.42
15144;BMP180;7672;50.834;6.286;2024-02-23T14:07:45;97393.09;;;15.37
15144;BMP180;7672;50.834;6.286;2024-02-23T14:10:12;97383.22;;;15.31
15144;BMP180;7672;50.834;6.286;2024-02-23T14:12:40;97388.78;;;15.22
15144;BMP180;7672;50.834;6.286;2024-02-23T14:15:09;97390.00;;;15.13
15144;BMP180;7672;50.834;6.286;2024-02-23T14:17:37;97385.09;;;15.10
15144;BMP180;7672;50.834;6.286;2024-02-23T14:20:05;97391.75;;;15.13
15144;BMP180;7672;50.834;6.286;2024-02-23T14:22:33;97392.47;;;15.15
15144;BMP180;7672;50.834;6.286;2024-02-23T14:25:01;97385.91;;;15.11
15144;BMP180;7672;50.834;6.286;2024-02-23T14:27:28;97384.41;;;15.07
15144;BMP180;7672;50.834;6.286;2024-02-23T14:29:58;97390.53;;;15.03
15144;BMP180;7672;50.834;6.286;2024-02-23T14:32:25;97389.78;;;15.01
15144;BMP180;7672;50.834;6.286;2024-02-23T14:34:52;97390.75;;;14.98